Time;durP1;ratioP1;P1;durP2;ratioP2;P2;SDS_P1;SDS_P2;PMS_P1;PMS_P2;Temp;Humidity;BMP_temperature;BMP_pressure;BME280_temperature;BME280_humidity;BME280_pressure;Samples;Min_cycle;Max_cycle;Signal;HPM_P1;HPM_P2
2023/10/29 00:00:43;;;;;;;1.50;0.90;;;10.20;99.90;;;;;;5062186;28;20335;-72
2023/10/29 00:03:09;;;;;;;2.47;1.10;;;10.30;99.90;;;;;;5068530;28;20334;-73
2023/10/29 00:05:35;;;;;;;1.97;0.90;;;10.40;99.90;;;;;;5066823;28;21953;-73
2023/10/29 00:08:00;;;;;;;7.67;1.10;;;10.30;99.90;;;;;;5072545;28;20809;-72
2023/10/29 00:10:26;;;;;;;3.20;0.80;;;10.40;99.90;;;;;;5065323;28;20204;-72
2023/10/29 00:12:52;;;;;;;2.17;0.73;;;10.40;99.90;;;;;;5064187;28;20224;-72
2023/10/29 00:15:17;;;;;;;2.83;0.80;;;10.40;99.90;;;;;;5067654;28;20203;-76
2023/10/29 00:17:43;;;;;;;10.83;1.30;;;10.50;99.90;;;;;;5062232;28;20194;-74
2023/10/29 00:20:09;;;;;;;1.93;1.10;;;10.40;99.90;;;;;;5065828;28;20176;-73
2023/10/29 00:22:34;;;;;;;2.03;0.87;;;10.40;99.90;;;;;;5062880;28;20238;-75
2023/10/29 00:25:00;;;;;;;3.10;1.50;;;10.40;99.90;;;;;;5064998;28;20458;-73
2023/10/29 00:27:26;;;;;;;2.23;0.90;;;10.40;99.90;;;;;;5065894;28;20185;-76
2023/10/29 00:29:52;;;;;;;4.73;0.90;;;10.30;99.90;;;;;;5063937;28;20205;-73
2023/10/29 00:32:18;;;;;;;1.80;0.80;;;10.30;99.90;;;;;;5064392;28;20218;-73
2023/10/29 00:34:48;;;;;;;3.00;1.20;;;10.40;99.90;;;;;;5065216;28;20471;-75
2023/10/29 00:37:16;;;;;;;2.27;1.10;;;10.30;99.90;;;;;;5071878;28;20798;-73
2023/10/29 00:39:42;;;;;;;7.40;0.90;;;10.30;99.90;;;;;;5052223;28;20439;-73
2023/10/29 00:42:10;;;;;;;1.30;0.70;;;10.30;99.90;;;;;;5051440;28;20443;-73
2023/10/29 00:44:36;;;;;;;7.53;1.00;;;10.40;99.90;;;;;;5075326;28;20255;-73
2023/10/29 00:47:02;;;;;;;2.10;0.77;;;10.30;99.90;;;;;;5089474;28;20458;-73
2023/10/29 00:49:28;;;;;;;1.80;0.80;;;10.20;99.90;;;;;;5091092;28;20476;-72
2023/10/29 00:51:54;;;;;;;1.83;0.87;;;10.20;99.90;;;;;;5068564;28;20908;-74
2023/10/29 00:54:19;;;;;;;1.90;0.90;;;10.10;99.90;;;;;;5068834;28;20705;-73
2023/10/29 00:56:45;;;;;;;2.37;1.00;;;10.10;99.90;;;;;;5082288;28;20552;-73
2023/10/29 00:59:11;;;;;;;2.67;0.93;;;9.90;99.90;;;;;;5074100;28;20568;-73
2023/10/29 01:01:38;;;;;;;2.57;1.13;;;9.80;99.90;;;;;;5086218;28;20216;-73
2023/10/29 01:04:07;;;;;;;1.30;0.63;;;9.80;99.90;;;;;;5084353;28;20795;-74
2023/10/29 01:06:35;;;;;;;2.17;1.13;;;9.70;99.90;;;;;;5085156;28;20793;-73
2023/10/29 01:09:01;;;;;;;3.10;1.23;;;9.70;99.90;;;;;;5086509;28;20472;-73
2023/10/29 01:11:26;;;;;;;1.90;0.70;;;9.60;99.90;;;;;;5070620;28;20518;-74
2023/10/29 01:13:52;;;;;;;2.20;1.00;;;9.60;99.90;;;;;;5091972;28;20176;-73
2023/10/29 01:16:18;;;;;;;1.70;0.83;;;9.60;99.90;;;;;;5094621;28;20641;-72
2023/10/29 01:18:43;;;;;;;3.77;0.80;;;9.50;99.90;;;;;;5091394;28;20214;-76
2023/10/29 01:21:09;;;;;;;1.60;1.00;;;9.50;99.90;;;;;;5094976;28;20204;-75
2023/10/29 01:23:36;;;;;;;5.20;1.00;;;9.40;99.90;;;;;;5098488;28;20251;-81
2023/10/29 01:26:01;;;;;;;1.60;0.73;;;9.40;99.90;;;;;;5117094;28;20457;-82
2023/10/29 01:28:27;;;;;;;5.27;1.33;;;9.40;99.90;;;;;;5117545;28;20458;-82
2023/10/29 01:30:53;;;;;;;5.10;1.10;;;9.30;99.90;;;;;;5119223;28;20187;-81
2023/10/29 01:33:19;;;;;;;3.20;1.20;;;9.20;99.90;;;;;;5115917;28;20220;-74
2023/10/29 01:35:45;;;;;;;4.33;1.00;;;9.20;99.90;;;;;;5090373;28;20195;-73
2023/10/29 01:38:11;;;;;;;1.83;1.10;;;9.20;99.90;;;;;;5080205;28;20928;-73
2023/10/29 01:40:36;;;;;;;5.70;1.40;;;9.10;99.90;;;;;;5080359;28;20184;-73
2023/10/29 01:43:02;;;;;;;2.07;0.93;;;9.10;99.90;;;;;;5084049;28;20727;-73
2023/10/29 01:45:27;;;;;;;2.87;1.07;;;9.10;99.90;;;;;;5068304;28;20200;-73
2023/10/29 01:47:53;;;;;;;7.83;1.33;;;9.00;99.90;;;;;;5067197;28;20191;-73
2023/10/29 01:50:19;;;;;;;3.50;1.00;;;8.90;99.90;;;;;;5066668;28;20184;-73
2023/10/29 01:52:44;;;;;;;3.00;1.20;;;8.90;99.90;;;;;;5066478;28;20223;-74
2023/10/29 01:55:10;;;;;;;5.10;1.70;;;8.90;99.90;;;;;;5046530;28;20208;-72
2023/10/29 01:57:36;;;;;;;3.47;1.40;;;8.70;99.90;;;;;;5066735;28;20190;-73
2023/10/29 02:00:06;;;;;;;2.83;1.00;;;8.70;99.90;;;;;;5048924;28;20250;-73
2023/10/29 02:02:32;;;;;;;2.57;1.17;;;8.60;99.90;;;;;;5065016;28;20443;-72
2023/10/29 02:04:58;;;;;;;5.40;1.17;;;8.60;99.90;;;;;;5065360;28;21417;-73
2023/10/29 02:07:24;;;;;;;2.57;1.03;;;8.50;99.90;;;;;;5048804;28;20944;-72
2023/10/29 02:09:50;;;;;;;2.60;1.23;;;8.50;99.90;;;;;;5064884;28;20557;-75
2023/10/29 02:12:15;;;;;;;2.43;1.13;;;8.40;99.90;;;;;;5065909;28;20247;-73
2023/10/29 02:14:41;;;;;;;2.50;1.43;;;8.30;99.90;;;;;;5065610;28;20423;-72
2023/10/29 02:17:07;;;;;;;2.47;1.30;;;8.30;99.90;;;;;;5066590;28;20184;-74
2023/10/29 02:19:32;;;;;;;2.83;1.03;;;8.10;99.90;;;;;;5062398;28;20189;-74
2023/10/29 02:21:58;;;;;;;2.07;1.17;;;8.20;99.90;;;;;;5063915;28;20698;-73
2023/10/29 02:24:24;;;;;;;5.07;1.30;;;8.20;99.90;;;;;;5056348;28;20219;-72
2023/10/29 02:26:49;;;;;;;1.63;0.80;;;8.10;99.90;;;;;;5066577;28;20244;-73
2023/10/29 02:29:15;;;;;;;2.43;1.00;;;8.10;99.90;;;;;;5063769;28;20853;-72
2023/10/29 02:31:40;;;;;;;4.00;1.30;;;8.00;99.90;;;;;;5048628;28;20211;-73
2023/10/29 02:34:06;;;;;;;2.90;1.30;;;7.90;99.90;;;;;;5067675;28;20610;-73
2023/10/29 02:36:31;;;;;;;6.63;1.70;;;7.90;99.90;;;;;;5065221;28;20185;-73
2023/10/29 02:38:58;;;;;;;2.30;1.20;;;7.80;99.90;;;;;;5048266;28;21118;-73
2023/10/29 02:41:24;;;;;;;2.40;0.90;;;7.80;99.90;;;;;;5064608;28;20278;-73
2023/10/29 02:43:49;;;;;;;4.37;1.57;;;7.70;99.90;;;;;;5071725;28;20498;-73
2023/10/29 02:46:16;;;;;;;4.03;0.80;;;7.80;99.90;;;;;;5079086;28;20514;-73
2023/10/29 02:48:41;;;;;;;8.23;1.50;;;7.70;99.90;;;;;;5077892;28;20200;-72
2023/10/29 02:51:12;;;;;;;1.63;1.03;;;7.70;99.90;;;;;;5082239;28;20432;-73
2023/10/29 02:53:38;;;;;;;3.07;1.20;;;7.70;99.90;;;;;;5085461;28;20188;-76
2023/10/29 02:56:04;;;;;;;3.53;1.57;;;7.70;99.90;;;;;;5078074;28;20464;-73
2023/10/29 02:58:29;;;;;;;3.90;0.87;;;7.60;99.90;;;;;;5086904;28;20514;-74
2023/10/29 03:01:15;;;;;;;2.47;1.20;;;7.60;99.90;;;;;;5085213;28;20621;-73
2023/10/29 03:03:43;;;;;;;2.50;1.07;;;7.70;99.90;;;;;;5058670;28;20280;-73
2023/10/29 03:06:09;;;;;;;1.57;0.70;;;7.70;99.90;;;;;;5076641;28;20427;-73
2023/10/29 03:08:35;;;;;;;4.40;1.00;;;7.70;99.90;;;;;;5082774;28;20447;-73
2023/10/29 03:11:02;;;;;;;2.50;1.57;;;7.70;99.90;;;;;;5082359;28;20517;-73
2023/10/29 03:13:28;;;;;;;1.70;0.80;;;7.70;99.90;;;;;;5082835;28;20427;-74
2023/10/29 03:15:55;;;;;;;2.00;1.00;;;7.70;99.90;;;;;;5085059;28;20517;-74
2023/10/29 03:18:21;;;;;;;2.13;0.90;;;7.80;99.90;;;;;;5084364;28;20430;-73
2023/10/29 03:20:47;;;;;;;1.13;0.60;;;7.80;99.90;;;;;;5065269;28;20430;-74
2023/10/29 03:23:13;;;;;;;2.20;0.70;;;7.90;99.90;;;;;;5084126;28;21096;-73
2023/10/29 03:25:39;;;;;;;1.20;0.60;;;8.00;99.90;;;;;;5082507;28;20438;-73
2023/10/29 03:28:05;;;;;;;4.53;1.53;;;8.20;99.90;;;;;;5082485;28;20572;-74
2023/10/29 03:30:31;;;;;;;4.60;1.20;;;8.40;99.90;;;;;;5081144;28;20432;-74
2023/10/29 03:32:56;;;;;;;2.60;0.97;;;8.60;99.90;;;;;;5083170;28;20207;-73
2023/10/29 03:35:25;;;;;;;3.10;1.30;;;8.70;99.90;;;;;;5079957;28;20176;-73
2023/10/29 03:37:51;;;;;;;3.00;0.97;;;8.80;99.90;;;;;;5077546;28;20212;-73
2023/10/29 03:40:16;;;;;;;3.00;0.70;;;8.90;99.90;;;;;;5082467;28;20978;-73
2023/10/29 03:42:42;;;;;;;1.37;0.87;;;9.10;99.90;;;;;;5084015;28;20479;-75
2023/10/29 03:45:08;;;;;;;2.83;0.67;;;9.20;99.90;;;;;;5081012;28;20217;-74
2023/10/29 03:47:33;;;;;;;1.53;0.77;;;9.30;99.90;;;;;;5082436;28;20192;-75
2023/10/29 03:49:59;;;;;;;2.80;0.77;;;9.40;99.90;;;;;;5063611;28;20490;-73
2023/10/29 03:52:24;;;;;;;2.40;0.60;;;9.40;99.90;;;;;;5083652;28;20677;-74
2023/10/29 03:54:50;;;;;;;1.90;0.70;;;9.60;99.90;;;;;;5082796;28;20250;-74
2023/10/29 03:57:16;;;;;;;2.80;1.00;;;9.70;99.90;;;;;;5083246;28;20198;-72
2023/10/29 03:59:42;;;;;;;12.37;1.40;;;9.80;99.90;;;;;;5084178;28;20172;-75
2023/10/29 04:02:08;;;;;;;1.73;0.90;;;9.80;99.90;;;;;;5082126;28;20236;-72
2023/10/29 04:04:35;;;;;;;1.57;0.67;;;9.90;99.90;;;;;;5084432;28;20423;-74
2023/10/29 04:07:01;;;;;;;1.30;0.57;;;9.90;99.90;;;;;;5083415;28;20429;-72
2023/10/29 04:09:28;;;;;;;5.13;0.70;;;10.00;99.90;;;;;;5081498;28;20464;-73
2023/10/29 04:11:53;;;;;;;1.30;0.60;;;10.00;99.90;;;;;;5068365;28;20569;-75
2023/10/29 04:14:19;;;;;;;1.90;0.80;;;10.10;99.90;;;;;;5087324;28;21229;-73
2023/10/29 04:16:45;;;;;;;1.43;0.67;;;10.00;99.90;;;;;;5068022;28;20177;-73
2023/10/29 04:19:10;;;;;;;1.47;0.70;;;10.10;99.90;;;;;;5068304;28;20654;-74
2023/10/29 04:21:36;;;;;;;2.00;0.83;;;10.10;99.90;;;;;;5088035;28;20203;-72
2023/10/29 04:24:01;;;;;;;1.37;0.63;;;10.00;99.90;;;;;;5087438;28;20187;-74
2023/10/29 04:26:27;;;;;;;3.83;0.57;;;10.10;99.90;;;;;;5088302;28;20204;-73
2023/10/29 04:28:53;;;;;;;1.80;0.60;;;10.10;99.90;;;;;;5067675;28;20200;-73
2023/10/29 04:31:19;;;;;;;1.73;0.80;;;10.10;99.90;;;;;;5087372;28;20979;-73
2023/10/29 04:33:48;;;;;;;1.73;0.80;;;10.10;99.90;;;;;;5088107;28;20173;-73
2023/10/29 04:36:22;;;;;;;3.40;0.70;;;10.10;99.90;;;;;;5088256;28;20259;-73
2023/10/29 04:38:48;;;;;;;1.30;0.60;;;10.20;99.90;;;;;;5088857;28;20422;-73
2023/10/29 04:41:14;;;;;;;2.33;0.80;;;10.20;99.90;;;;;;5088334;28;20529;-72
2023/10/29 04:43:41;;;;;;;2.27;0.73;;;10.30;99.90;;;;;;5089010;28;20482;-74
2023/10/29 04:46:10;;;;;;;3.20;0.87;;;10.20;99.90;;;;;;5089912;28;20225;-75
2023/10/29 04:48:36;;;;;;;1.77;0.80;;;10.10;99.90;;;;;;5069732;28;20462;-72
2023/10/29 04:51:02;;;;;;;2.13;0.97;;;10.10;99.90;;;;;;5090527;28;20418;-71
2023/10/29 04:53:27;;;;;;;1.30;0.60;;;9.90;99.90;;;;;;5089712;28;20414;-73
2023/10/29 04:55:53;;;;;;;3.10;1.00;;;9.80;99.90;;;;;;5091486;28;20199;-74
2023/10/29 04:58:19;;;;;;;1.87;0.90;;;9.70;99.90;;;;;;5090708;28;20172;-69
2023/10/29 05:00:44;;;;;;;1.20;0.60;;;9.50;99.90;;;;;;5089307;28;20644;-72
2023/10/29 05:03:10;;;;;;;2.13;0.80;;;9.40;99.90;;;;;;5087056;28;20242;-71
2023/10/29 05:05:35;;;;;;;1.57;0.70;;;9.30;99.90;;;;;;5089035;28;20547;-72
2023/10/29 05:08:01;;;;;;;1.77;0.83;;;9.20;99.90;;;;;;5089093;28;20184;-71
2023/10/29 05:10:28;;;;;;;1.40;0.80;;;9.00;99.90;;;;;;5068745;28;20242;-72
2023/10/29 05:12:54;;;;;;;1.70;0.80;;;8.90;99.90;;;;;;5085849;28;20755;-73
2023/10/29 05:15:19;;;;;;;1.10;0.53;;;8.80;99.90;;;;;;5088601;28;20426;-72
2023/10/29 05:17:45;;;;;;;3.03;0.90;;;8.70;99.90;;;;;;5086655;28;20189;-71
2023/10/29 05:20:12;;;;;;;1.10;0.50;;;8.60;99.90;;;;;;5086400;28;20660;-71
2023/10/29 05:22:37;;;;;;;2.30;1.00;;;8.60;99.90;;;;;;5087657;28;20204;-71
2023/10/29 05:25:06;;;;;;;3.00;0.90;;;8.60;99.90;;;;;;5088291;28;20434;-73
2023/10/29 05:27:32;;;;;;;1.27;0.60;;;8.60;99.90;;;;;;5088083;28;20273;-72
2023/10/29 05:29:59;;;;;;;3.10;1.30;;;8.70;99.90;;;;;;5086944;28;21108;-72
2023/10/29 05:32:26;;;;;;;1.40;0.67;;;8.70;99.90;;;;;;5088338;28;20235;-71
2023/10/29 05:34:52;;;;;;;1.93;0.93;;;8.70;99.90;;;;;;5088431;28;20410;-73
2023/10/29 05:37:17;;;;;;;5.43;0.80;;;8.70;99.90;;;;;;5089034;28;20864;-72
2023/10/29 05:39:43;;;;;;;3.63;1.07;;;8.70;99.90;;;;;;5086767;28;20920;-72
2023/10/29 05:42:09;;;;;;;1.50;0.60;;;8.70;99.90;;;;;;5084587;28;20243;-73
2023/10/29 05:44:34;;;;;;;1.40;0.67;;;8.60;99.90;;;;;;5085099;28;20262;-72
2023/10/29 05:47:00;;;;;;;1.40;0.80;;;8.70;99.90;;;;;;5087019;28;20426;-73
2023/10/29 05:49:26;;;;;;;2.60;1.17;;;8.70;99.90;;;;;;5086775;28;20208;-73
2023/10/29 05:51:51;;;;;;;8.57;1.97;;;8.60;99.90;;;;;;5085746;28;20265;-71
2023/10/29 05:54:18;;;;;;;2.13;0.93;;;8.70;99.90;;;;;;5086569;28;20179;-73
2023/10/29 05:56:45;;;;;;;1.87;0.90;;;8.70;99.90;;;;;;5068803;28;20177;-74
2023/10/29 05:59:10;;;;;;;1.87;1.00;;;8.70;99.90;;;;;;5086089;28;20423;-72
2023/10/29 06:01:38;;;;;;;2.20;0.80;;;8.70;99.90;;;;;;5085242;28;21581;-71
2023/10/29 06:04:04;;;;;;;2.20;1.00;;;8.70;99.90;;;;;;5085655;28;20207;-74
2023/10/29 06:06:30;;;;;;;3.20;1.10;;;8.70;99.90;;;;;;5085690;28;20470;-72
2023/10/29 06:08:55;;;;;;;1.80;0.97;;;8.60;99.90;;;;;;5087397;28;20861;-72
2023/10/29 06:11:21;;;;;;;3.50;1.10;;;8.60;99.90;;;;;;5084886;28;20219;-72
2023/10/29 06:13:47;;;;;;;2.43;0.90;;;8.60;99.90;;;;;;5087492;28;20207;-72
2023/10/29 06:16:13;;;;;;;6.53;1.17;;;8.70;99.90;;;;;;5089278;28;20178;-72
2023/10/29 06:18:39;;;;;;;6.83;1.10;;;8.70;99.90;;;;;;5086001;28;20426;-72
2023/10/29 06:21:04;;;;;;;2.63;1.60;;;8.60;99.90;;;;;;5084973;28;20180;-71
2023/10/29 06:23:30;;;;;;;11.87;3.50;;;8.70;99.90;;;;;;5067484;28;20196;-73
2023/10/29 06:25:55;;;;;;;18.23;3.73;;;8.70;99.90;;;;;;5086881;28;20181;-72
2023/10/29 06:28:21;;;;;;;7.30;2.73;;;8.80;99.90;;;;;;5089075;28;20412;-71
2023/10/29 06:30:47;;;;;;;8.33;2.60;;;8.80;99.90;;;;;;5070506;28;20259;-71
2023/10/29 06:33:12;;;;;;;5.77;2.33;;;8.90;99.90;;;;;;5087838;28;20751;-74
2023/10/29 06:35:40;;;;;;;3.47;2.30;;;9.00;99.90;;;;;;5087272;28;20219;-71
2023/10/29 06:38:06;;;;;;;5.20;3.00;;;9.10;99.90;;;;;;5086701;28;20229;-73
2023/10/29 06:40:31;;;;;;;8.37;3.57;;;9.10;99.90;;;;;;5088979;28;20791;-72
2023/10/29 06:42:57;;;;;;;4.73;2.20;;;9.20;99.90;;;;;;5090835;28;20219;-72
2023/10/29 06:45:22;;;;;;;6.90;3.33;;;9.20;99.90;;;;;;5099919;28;20184;-80
2023/10/29 06:47:48;;;;;;;3.93;2.20;;;9.20;99.90;;;;;;5109217;28;20192;-77
2023/10/29 06:50:14;;;;;;;7.00;3.37;;;9.20;99.90;;;;;;5112010;28;20212;-79
2023/10/29 06:52:39;;;;;;;4.93;2.70;;;9.20;99.90;;;;;;5111504;28;20206;-77
2023/10/29 06:55:08;;;;;;;5.83;2.97;;;9.30;99.90;;;;;;5094044;28;20172;-80
2023/10/29 06:57:35;;;;;;;7.47;3.20;;;9.30;99.90;;;;;;5084523;28;20172;-72
2023/10/29 07:00:00;;;;;;;6.83;3.10;;;9.40;99.90;;;;;;5082273;28;20444;-75
2023/10/29 07:02:26;;;;;;;5.17;2.20;;;9.40;99.90;;;;;;5083679;28;20443;-72
2023/10/29 07:04:52;;;;;;;4.20;2.10;;;9.50;99.90;;;;;;5084743;28;20181;-73
2023/10/29 07:07:18;;;;;;;3.90;2.00;;;9.60;99.90;;;;;;5082642;28;20184;-72
2023/10/29 07:09:44;;;;;;;4.20;2.30;;;9.70;99.90;;;;;;5063368;28;20204;-72
2023/10/29 07:12:09;;;;;;;4.73;1.80;;;9.90;99.90;;;;;;5080613;28;20477;-73
2023/10/29 07:14:35;;;;;;;4.27;1.63;;;10.00;99.90;;;;;;5082065;28;20225;-77
2023/10/29 07:17:01;;;;;;;2.23;1.00;;;10.30;99.90;;;;;;5066245;28;20184;-72
2023/10/29 07:19:26;;;;;;;4.93;1.40;;;10.50;99.90;;;;;;5084095;28;20769;-72
2023/10/29 07:21:52;;;;;;;1.97;0.70;;;10.40;99.90;;;;;;5086728;28;20219;-72
2023/10/29 07:24:17;;;;;;;4.03;1.10;;;10.70;99.90;;;;;;5084781;28;20207;-75
2023/10/29 07:26:44;;;;;;;2.47;1.10;;;10.80;99.90;;;;;;5085646;28;20193;-72
2023/10/29 07:29:11;;;;;;;4.40;1.33;;;11.00;99.90;;;;;;5086523;28;20243;-72
2023/10/29 07:31:37;;;;;;;3.80;1.50;;;11.10;99.90;;;;;;5084327;28;21368;-72
2023/10/29 07:34:02;;;;;;;7.90;2.10;;;11.20;99.90;;;;;;5085008;28;20429;-72
2023/10/29 07:36:28;;;;;;;11.70;1.70;;;11.30;99.90;;;;;;5082547;28;20180;-73
2023/10/29 07:38:54;;;;;;;4.27;2.00;;;11.40;99.90;;;;;;5083118;28;20570;-73
2023/10/29 07:41:21;;;;;;;1.70;0.93;;;11.50;99.90;;;;;;5062291;28;20454;-73
2023/10/29 07:43:47;;;;;;;2.33;1.07;;;11.60;99.90;;;;;;5083871;28;20462;-72
2023/10/29 07:46:13;;;;;;;2.53;1.23;;;11.60;99.90;;;;;;5086502;28;20438;-72
2023/10/29 07:48:40;;;;;;;5.57;1.43;;;11.70;99.90;;;;;;5086498;28;20478;-71
2023/10/29 07:51:05;;;;;;;2.50;0.80;;;11.70;99.90;;;;;;5086631;28;20185;-72
2023/10/29 07:53:31;;;;;;;2.60;1.10;;;11.70;99.90;;;;;;5085014;28;20426;-71
2023/10/29 07:56:15;;;;;;;1.50;0.80;;;11.90;99.90;;;;;;5086391;28;20611;-73
2023/10/29 07:58:41;;;;;;;1.70;0.70;;;11.90;99.90;;;;;;5089056;28;20172;-72
2023/10/29 08:01:11;;;;;;;2.80;0.90;;;12.10;99.90;;;;;;5088636;28;20429;-73
2023/10/29 08:03:36;;;;;;;2.37;1.00;;;12.00;99.90;;;;;;5086687;28;20561;-72
2023/10/29 08:06:03;;;;;;;6.50;1.17;;;12.00;99.90;;;;;;5087957;28;20422;-72
2023/10/29 08:08:28;;;;;;;2.27;1.13;;;12.00;99.90;;;;;;5087865;28;20256;-73
2023/10/29 08:10:54;;;;;;;2.43;1.30;;;12.00;99.90;;;;;;5069577;28;20499;-73
2023/10/29 08:13:20;;;;;;;2.70;1.30;;;12.10;99.90;;;;;;5084794;28;20206;-70
2023/10/29 08:15:46;;;;;;;4.00;1.00;;;12.10;99.90;;;;;;5084324;28;20188;-73
2023/10/29 08:18:11;;;;;;;3.30;1.70;;;12.20;99.90;;;;;;5084565;28;20426;-71
2023/10/29 08:20:37;;;;;;;1.87;0.90;;;12.20;99.90;;;;;;5086304;28;20176;-76
2023/10/29 08:23:03;;;;;;;2.23;1.20;;;12.20;99.90;;;;;;5085698;28;20673;-72
2023/10/29 08:25:28;;;;;;;2.50;1.10;;;12.20;99.90;;;;;;5086557;28;20184;-72
2023/10/29 08:27:54;;;;;;;7.00;1.87;;;12.20;99.90;;;;;;5067440;28;20188;-73
2023/10/29 08:30:19;;;;;;;2.20;1.10;;;12.20;99.90;;;;;;5086672;28;20209;-73
2023/10/29 08:32:45;;;;;;;4.33;1.20;;;12.30;99.90;;;;;;5086256;28;20193;-75
2023/10/29 08:35:11;;;;;;;2.10;1.10;;;12.40;99.90;;;;;;5086396;28;20191;-72
2023/10/29 08:37:37;;;;;;;1.70;0.90;;;12.50;99.90;;;;;;5084794;28;20576;-75
2023/10/29 08:40:03;;;;;;;4.83;1.30;;;12.60;99.90;;;;;;5085362;28;20249;-75
2023/10/29 08:42:30;;;;;;;2.93;1.23;;;12.80;99.90;;;;;;5083960;28;20450;-73
2023/10/29 08:44:59;;;;;;;3.13;1.10;;;12.80;99.90;;;;;;5047911;28;1102396;-74
2023/10/29 08:47:26;;;;;;;2.33;1.10;;;12.80;99.90;;;;;;5086056;28;20227;-73
2023/10/29 08:49:51;;;;;;;2.17;1.00;;;12.90;99.90;;;;;;5084990;28;20466;-74
2023/10/29 08:52:18;;;;;;;4.10;1.43;;;12.80;99.90;;;;;;5066157;28;20453;-73
2023/10/29 08:54:44;;;;;;;1.80;1.00;;;12.80;99.90;;;;;;5071144;28;20275;-73
2023/10/29 08:57:10;;;;;;;3.30;0.80;;;12.90;99.90;;;;;;5070024;28;20425;-73
2023/10/29 08:59:36;;;;;;;1.33;0.63;;;13.00;99.90;;;;;;5089071;28;20427;-75
2023/10/29 09:02:02;;;;;;;2.30;0.90;;;13.10;99.90;;;;;;5088446;28;20460;-74
2023/10/29 09:04:27;;;;;;;2.40;1.17;;;13.10;99.90;;;;;;5086419;28;20430;-73
2023/10/29 09:06:53;;;;;;;2.17;1.10;;;13.20;99.90;;;;;;5084529;28;20189;-73
2023/10/29 09:09:19;;;;;;;4.30;1.87;;;13.30;99.90;;;;;;5084483;28;20276;-74
2023/10/29 09:11:46;;;;;;;3.50;0.80;;;13.40;99.90;;;;;;5085637;28;20199;-73
2023/10/29 09:14:13;;;;;;;2.63;0.90;;;13.50;99.90;;;;;;5087804;28;20187;-74
2023/10/29 09:16:39;;;;;;;7.53;1.17;;;13.60;99.90;;;;;;5061145;28;20441;-76
2023/10/29 09:19:05;;;;;;;1.50;0.77;;;13.70;99.90;;;;;;5085507;28;21026;-75
2023/10/29 09:21:30;;;;;;;2.60;0.70;;;13.80;99.90;;;;;;5088098;28;20548;-75
2023/10/29 09:23:56;;;;;;;2.57;0.97;;;13.90;99.90;;;;;;5084862;28;20185;-72
2023/10/29 09:26:22;;;;;;;2.93;1.17;;;14.00;99.90;;;;;;5086927;28;20192;-72
2023/10/29 09:28:48;;;;;;;2.53;0.87;;;13.90;99.90;;;;;;5087735;28;20231;-72
2023/10/29 09:31:20;;;;;;;4.60;1.27;;;13.90;99.90;;;;;;5087942;28;20196;-71
2023/10/29 09:33:47;;;;;;;3.23;1.10;;;13.90;99.90;;;;;;5085608;28;20177;-74
2023/10/29 09:36:13;;;;;;;1.50;0.73;;;14.00;99.90;;;;;;5087586;28;20438;-72
2023/10/29 09:38:40;;;;;;;1.30;0.50;;;14.00;99.90;;;;;;5088583;28;20469;-71
2023/10/29 09:41:07;;;;;;;1.30;0.70;;;14.00;99.90;;;;;;5087917;28;20422;-72
2023/10/29 09:43:39;;;;;;;4.67;1.50;;;14.10;99.90;;;;;;5088400;28;20478;-72
2023/10/29 09:46:06;;;;;;;5.60;1.10;;;14.20;99.90;;;;;;5085990;28;20444;-72
2023/10/29 09:48:35;;;;;;;1.20;0.50;;;14.20;99.90;;;;;;5086913;28;20481;-76
2023/10/29 09:51:04;;;;;;;1.40;0.60;;;14.30;99.90;;;;;;5084424;28;20438;-72
2023/10/29 09:53:31;;;;;;;1.90;0.87;;;14.40;99.90;;;;;;5086435;28;20422;-72
2023/10/29 09:55:58;;;;;;;1.40;0.60;;;14.50;99.90;;;;;;5088303;28;20835;-72
2023/10/29 09:58:26;;;;;;;2.07;0.93;;;14.60;99.90;;;;;;5067179;28;20427;-75
2023/10/29 10:00:52;;;;;;;1.60;0.63;;;14.60;99.90;;;;;;5084260;28;20930;-73
2023/10/29 10:03:18;;;;;;;1.40;0.80;;;14.60;99.90;;;;;;5086562;28;20426;-74
2023/10/29 10:05:46;;;;;;;1.97;0.60;;;14.60;99.90;;;;;;5086360;28;20422;-73
2023/10/29 10:08:11;;;;;;;2.57;0.93;;;14.60;99.90;;;;;;5085124;28;20462;-72
2023/10/29 10:10:45;;;;;;;3.03;0.67;;;14.70;99.90;;;;;;5066979;28;20473;-74
2023/10/29 10:13:10;;;;;;;1.63;0.60;;;14.70;99.90;;;;;;5076806;28;20214;-73
2023/10/29 10:15:39;;;;;;;2.50;1.10;;;14.80;99.90;;;;;;5067123;28;20426;-73
2023/10/29 10:18:05;;;;;;;4.20;0.90;;;14.80;99.90;;;;;;5084949;28;20173;-72
2023/10/29 10:20:32;;;;;;;1.60;0.80;;;15.00;99.70;;;;;;5066528;28;20512;-72
2023/10/29 10:23:09;;;;;;;2.37;1.03;;;15.10;99.20;;;;;;5083857;28;20538;-73
2023/10/29 10:25:35;;;;;;;1.90;0.73;;;15.10;99.50;;;;;;5084885;28;20422;-76
2023/10/29 10:28:03;;;;;;;3.13;1.20;;;15.20;99.40;;;;;;5084953;28;20438;-74
2023/10/29 10:30:29;;;;;;;2.50;0.90;;;15.40;99.80;;;;;;5086802;28;20539;-72
2023/10/29 10:33:15;;;;;;;2.97;0.73;;;15.50;98.90;;;;;;5088933;28;20791;-72
2023/10/29 10:35:51;;;;;;;2.57;0.63;;;15.70;98.40;;;;;;5085098;28;20426;-74
2023/10/29 10:38:22;;;;;;;2.03;1.03;;;15.80;98.60;;;;;;5083620;28;20525;-73
2023/10/29 10:40:58;;;;;;;1.67;0.63;;;15.90;98.50;;;;;;5084817;28;20427;-75
2023/10/29 10:43:25;;;;;;;1.97;0.70;;;16.10;97.40;;;;;;5085325;28;20557;-75
2023/10/29 10:45:51;;;;;;;2.03;0.70;;;16.20;98.00;;;;;;5084048;28;20514;-73
2023/10/29 10:48:17;;;;;;;1.47;0.70;;;16.20;97.30;;;;;;5084840;28;20517;-73
2023/10/29 10:50:43;;;;;;;5.47;1.00;;;16.30;97.20;;;;;;5085926;28;20589;-75
2023/10/29 10:53:10;;;;;;;1.20;0.50;;;16.40;96.50;;;;;;5085174;28;20531;-73
2023/10/29 10:55:37;;;;;;;9.90;0.90;;;16.40;96.30;;;;;;5084854;28;20230;-73
2023/10/29 10:58:04;;;;;;;2.10;0.70;;;16.20;96.50;;;;;;5084134;28;20919;-73
2023/10/29 11:00:32;;;;;;;1.70;0.73;;;16.30;96.80;;;;;;5085524;28;20503;-72
2023/10/29 11:02:59;;;;;;;1.83;0.60;;;16.20;96.90;;;;;;5088886;28;20955;-72
2023/10/29 11:05:30;;;;;;;9.03;1.07;;;16.20;96.70;;;;;;5085362;28;20465;-74
2023/10/29 11:07:57;;;;;;;2.00;0.73;;;16.30;96.30;;;;;;5087363;28;20422;-75
2023/10/29 11:10:25;;;;;;;1.93;0.70;;;16.20;96.00;;;;;;5086881;28;20535;-74
2023/10/29 11:12:51;;;;;;;4.23;1.10;;;16.20;96.70;;;;;;5067869;28;20438;-73
2023/10/29 11:15:23;;;;;;;6.50;0.83;;;16.20;96.40;;;;;;5088418;28;20505;-71
2023/10/29 11:17:59;;;;;;;2.80;0.80;;;16.10;97.40;;;;;;5085871;28;20427;-73
2023/10/29 11:20:41;;;;;;;2.17;0.80;;;16.00;97.00;;;;;;5087634;28;20414;-72
2023/10/29 11:23:13;;;;;;;2.33;0.90;;;16.00;97.00;;;;;;5086467;28;20449;-72
2023/10/29 11:25:41;;;;;;;1.30;0.70;;;16.00;98.00;;;;;;5087566;28;20441;-73
2023/10/29 11:28:28;;;;;;;1.57;0.53;;;16.00;96.70;;;;;;5088439;28;20455;-73
2023/10/29 11:31:19;;;;;;;1.40;0.57;;;16.00;96.30;;;;;;5088651;28;20503;-75
2023/10/29 11:33:55;;;;;;;1.37;0.50;;;16.10;96.10;;;;;;5091684;28;20423;-74
2023/10/29 11:36:32;;;;;;;1.27;0.57;;;16.20;95.20;;;;;;5097407;28;20398;-80
2023/10/29 11:39:16;;;;;;;2.33;0.80;;;16.50;94.90;;;;;;5112320;28;20445;-82
2023/10/29 11:41:42;;;;;;;2.50;0.77;;;16.60;94.90;;;;;;5115203;28;20512;-82
2023/10/29 11:44:28;;;;;;;3.37;0.90;;;16.60;94.40;;;;;;5118697;28;20475;-81
2023/10/29 11:47:03;;;;;;;1.87;0.80;;;16.70;94.70;;;;;;5113162;28;20433;-74
2023/10/29 11:49:44;;;;;;;1.50;0.70;;;16.80;94.30;;;;;;5086858;28;20846;-73
2023/10/29 11:52:10;;;;;;;1.53;0.73;;;16.90;93.50;;;;;;5086356;28;20475;-74
2023/10/29 11:54:38;;;;;;;1.70;0.80;;;16.80;94.30;;;;;;5088675;28;20449;-72
2023/10/29 11:57:08;;;;;;;2.03;0.70;;;16.80;93.60;;;;;;5088143;28;20169;-72
2023/10/29 11:59:33;;;;;;;1.70;0.63;;;16.80;93.80;;;;;;5086279;28;20931;-73
2023/10/29 12:01:59;;;;;;;5.93;0.70;;;16.80;93.30;;;;;;5086292;28;20438;-74
2023/10/29 12:04:29;;;;;;;3.30;0.57;;;16.90;93.50;;;;;;5070097;28;20336;-72
2023/10/29 12:06:56;;;;;;;1.97;0.70;;;17.00;93.50;;;;;;5085855;28;20188;-73
2023/10/29 12:09:23;;;;;;;4.40;0.70;;;17.10;92.70;;;;;;5087751;28;20462;-71
2023/10/29 12:11:53;;;;;;;3.70;0.97;;;17.30;93.10;;;;;;5086764;28;20443;-74
2023/10/29 12:14:43;;;;;;;1.70;0.80;;;17.30;93.20;;;;;;5069658;28;20423;-73
2023/10/29 12:17:10;;;;;;;2.40;0.80;;;17.50;92.00;;;;;;5072176;28;20418;-74
2023/10/29 12:19:46;;;;;;;3.93;0.80;;;17.50;91.90;;;;;;5089446;28;20788;-75
2023/10/29 12:22:27;;;;;;;1.70;0.80;;;17.40;91.90;;;;;;5069230;28;20826;-75
2023/10/29 12:24:53;;;;;;;1.20;0.50;;;17.50;92.00;;;;;;5088177;28;20449;-73
2023/10/29 12:27:22;;;;;;;2.13;0.60;;;17.40;92.60;;;;;;5084643;28;20554;-73
2023/10/29 12:29:49;;;;;;;3.70;0.63;;;17.30;91.80;;;;;;5088356;28;20470;-73
2023/10/29 12:32:23;;;;;;;5.63;1.03;;;17.30;92.30;;;;;;5089644;28;20446;-73
2023/10/29 12:34:53;;;;;;;1.87;0.70;;;17.20;92.00;;;;;;5092965;28;20528;-74
2023/10/29 12:37:23;;;;;;;1.77;0.83;;;17.30;92.40;;;;;;5089076;28;20943;-73
2023/10/29 12:39:51;;;;;;;2.27;1.20;;;17.10;92.40;;;;;;5090072;28;20517;-72
2023/10/29 12:42:17;;;;;;;1.70;0.70;;;17.20;92.40;;;;;;5093679;28;20577;-72
2023/10/29 12:44:55;;;;;;;4.50;0.90;;;17.20;92.80;;;;;;5090143;28;20954;-73
2023/10/29 12:47:24;;;;;;;1.53;0.77;;;17.30;92.20;;;;;;5093677;28;20433;-77
2023/10/29 12:50:02;;;;;;;2.33;0.60;;;17.30;92.00;;;;;;5090800;28;20447;-72